CBBC

Bella Bella / Campbell Island Airport

Bella Bella, , Canada
METAR CBBC 182042Z AUTO 15012G21KT 9SM -RA FEW026 SCT037 BKN046 OVC055 08/06 A2976 RMK SLP081
Observed Flight Rules
Jan-18 @ 20:42 UTC (15 minutes ago) Visual Flight Rules
Wind Visibility Clouds Conditions
150° at 12 knots
 Gusting to 21 knots
9 miles
  • Few at 2,600' AGL
  • Scattered at 3,700' AGL
  • Broken at 4,600' AGL
  • Overcast at 5,500' AGL
  • Light Rain
Temperatures Readings
Current 8°C / 46°F
Dewpoint 6°C / 43°F
Humidity 87%
Altimeter 29.76" Hg
Pressure 1008.1 hPa
Elevation 43
METAR CBBC 182042Z AUTO 15012G21KT 9SM -RA FEW026 SCT037 BKN046 OVC055 08/06 A2976 RMK SLP081
Observed Flight Rules
Jan-18 @ 20:42 UTC
(15 minutes ago)
VFR
Wind Visibility
150° at 12 knots
 Gusting to 21 knots
9 miles
Clouds
  • Few at 2,600' AGL
  • Scattered at 3,700' AGL
  • Broken at 4,600' AGL
  • Overcast at 5,500' AGL
Conditions
  • Light Rain
Temperature Dewpoint
8°C / 46°F 6°C / 43°F
Humidity Altimeter Pressure
87% 29.76" Hg 1008.1 hPa